Time;durP1;ratioP1;P1;durP2;ratioP2;P2;SDS_P1;SDS_P2;PMS_P1;PMS_P2;Temp;Humidity;BMP_temperature;BMP_pressure;BME280_temperature;BME280_humidity;BME280_pressure;Samples;Min_cycle;Max_cycle;Signal;HPM_P1;HPM_P2
2021/05/25 00:01:08;;;;;;;;;;;20.10;56.70;;;;;;5023019;28;19917;-58
2021/05/25 00:03:33;;;;;;;;;;;20.10;56.70;;;;;;5035612;28;19943;-58
2021/05/25 00:05:59;;;;;;;;;;;20.10;56.70;;;;;;5033724;28;20317;-60
2021/05/25 00:08:24;;;;;;;;;;;20.10;56.60;;;;;;5027140;28;19948;-57
2021/05/25 00:10:50;;;;;;;;;;;20.10;56.60;;;;;;5034696;28;19925;-58
2021/05/25 00:13:15;;;;;;;;;;;20.10;56.60;;;;;;5032694;28;19921;-57
2021/05/25 00:15:41;;;;;;;;;;;20.10;56.60;;;;;;5032552;28;20400;-58
2021/05/25 00:18:06;;;;;;;;;;;20.10;56.60;;;;;;5018456;28;19948;-59
2021/05/25 00:20:32;;;;;;;;;;;20.10;56.50;;;;;;5029562;28;19925;-55
2021/05/25 00:22:57;;;;;;;;;;;20.10;56.60;;;;;;5025760;28;19917;-58
2021/05/25 00:25:23;;;;;;;;;;;20.10;56.60;;;;;;5030665;28;19917;-57
2021/05/25 00:27:48;;;;;;;;;;;20.10;56.50;;;;;;5033652;28;19916;-55
2021/05/25 00:30:14;;;;;;;;;;;20.10;56.50;;;;;;5017826;28;19916;-57
2021/05/25 00:32:40;;;;;;;;;;;20.10;56.60;;;;;;5044463;28;19917;-58
2021/05/25 00:35:06;;;;;;;;;;;20.10;56.60;;;;;;5040196;28;20357;-58
2021/05/25 00:37:31;;;;;;;;;;;20.10;56.50;;;;;;5030023;28;20359;-56
2021/05/25 00:39:56;;;;;;;;;;;20.10;56.60;;;;;;5031056;28;19917;-57
2021/05/25 00:42:22;;;;;;;;;;;20.10;56.60;;;;;;5028871;28;20398;-57
2021/05/25 00:44:47;;;;;;;;;;;20.10;57.10;;;;;;5040464;28;19916;-56
2021/05/25 00:47:13;;;;;;;;;;;20.10;56.50;;;;;;5043199;28;19971;-58
2021/05/25 00:49:38;;;;;;;;;;;20.10;56.50;;;;;;5029278;28;20307;-58
2021/05/25 00:52:04;;;;;;;;;;;20.10;56.50;;;;;;5040563;28;19921;-58
2021/05/25 00:54:29;;;;;;;;;;;20.10;56.50;;;;;;5041628;28;19917;-57
2021/05/25 00:56:56;;;;;;;;;;;20.10;56.60;;;;;;5029594;28;20350;-57
2021/05/25 00:59:22;;;;;;;;;;;20.10;56.60;;;;;;5027042;28;19924;-57
2021/05/25 01:01:47;;;;;;;;;;;20.10;56.60;;;;;;5011632;28;20290;-58
2021/05/25 01:04:13;;;;;;;;;;;20.10;56.60;;;;;;5029060;28;19940;-58
2021/05/25 01:06:38;;;;;;;;;;;20.10;56.60;;;;;;5038702;28;19921;-57
2021/05/25 01:09:04;;;;;;;;;;;20.10;56.60;;;;;;5033250;28;19988;-58
2021/05/25 01:11:32;;;;;;;;;;;20.10;56.60;;;;;;5038673;28;19924;-58
2021/05/25 01:13:59;;;;;;;;;;;20.10;56.70;;;;;;5030481;28;19921;-56
2021/05/25 01:16:27;;;;;;;;;;;20.10;56.60;;;;;;5035970;28;20340;-56
2021/05/25 01:18:52;;;;;;;;;;;20.10;56.60;;;;;;5044352;28;19966;-58
2021/05/25 01:21:18;;;;;;;;;;;20.10;56.70;;;;;;5017964;28;19917;-58
2021/05/25 01:23:43;;;;;;;;;;;20.10;56.70;;;;;;5034899;28;19931;-57
2021/05/25 01:26:09;;;;;;;;;;;20.10;56.70;;;;;;5037463;28;19920;-57
2021/05/25 01:28:34;;;;;;;;;;;20.10;56.70;;;;;;5020304;28;19917;-58
2021/05/25 01:31:00;;;;;;;;;;;20.10;56.60;;;;;;5019926;28;19927;-62
2021/05/25 01:33:29;;;;;;;;;;;20.10;56.60;;;;;;5036525;28;20287;-58
2021/05/25 01:35:54;;;;;;;;;;;20.10;56.70;;;;;;5029137;28;19921;-58
2021/05/25 01:38:20;;;;;;;;;;;20.10;56.60;;;;;;5013688;28;20004;-58
2021/05/25 01:40:46;;;;;;;;;;;20.10;56.60;;;;;;5031636;28;19917;-54
2021/05/25 01:43:11;;;;;;;;;;;20.10;56.70;;;;;;5018364;28;19986;-58
2021/05/25 01:45:37;;;;;;;;;;;20.10;56.60;;;;;;5029984;28;20032;-56
2021/05/25 01:48:03;;;;;;;;;;;20.10;56.60;;;;;;5032631;28;19951;-58
2021/05/25 01:50:28;;;;;;;;;;;20.10;56.60;;;;;;5020319;28;19986;-58
2021/05/25 01:53:02;;;;;;;;;;;20.10;56.60;;;;;;5041418;28;20015;-57
2021/05/25 01:55:29;;;;;;;;;;;20.10;56.60;;;;;;5035972;28;19992;-58
2021/05/25 01:57:59;;;;;;;;;;;20.10;56.60;;;;;;5035566;28;20051;-59
2021/05/25 02:00:24;;;;;;;;;;;20.10;56.60;;;;;;5038744;28;19924;-59
2021/05/25 02:02:50;;;;;;;;;;;20.10;56.70;;;;;;5026408;28;19925;-58
2021/05/25 02:05:15;;;;;;;;;;;20.10;56.60;;;;;;5033659;28;19943;-58
2021/05/25 02:07:44;;;;;;;;;;;20.10;56.60;;;;;;5037864;28;19917;-59
2021/05/25 02:10:10;;;;;;;;;;;20.10;56.60;;;;;;5024315;28;20007;-58
2021/05/25 02:12:35;;;;;;;;;;;20.10;56.60;;;;;;5003030;28;20039;-58
2021/05/25 02:15:01;;;;;;;;;;;20.10;56.60;;;;;;5036837;28;19928;-56
2021/05/25 02:17:26;;;;;;;;;;;20.10;56.60;;;;;;5033611;28;20536;-59
2021/05/25 02:19:52;;;;;;;;;;;20.10;56.60;;;;;;5036330;28;19920;-59
2021/05/25 02:22:17;;;;;;;;;;;20.10;56.60;;;;;;5025473;28;20267;-56
2021/05/25 02:24:43;;;;;;;;;;;20.10;56.60;;;;;;5030057;28;19998;-59
2021/05/25 02:27:08;;;;;;;;;;;20.10;56.60;;;;;;5026196;28;19921;-59
2021/05/25 02:29:34;;;;;;;;;;;20.10;56.50;;;;;;5010580;28;19921;-59
2021/05/25 02:31:59;;;;;;;;;;;20.10;56.50;;;;;;5024673;28;19917;-59
2021/05/25 02:34:24;;;;;;;;;;;20.10;56.50;;;;;;5023997;28;19917;-59
2021/05/25 02:36:50;;;;;;;;;;;20.10;56.50;;;;;;5034637;28;19979;-59
2021/05/25 02:39:15;;;;;;;;;;;20.10;56.50;;;;;;5039339;28;20374;-59
2021/05/25 02:41:41;;;;;;;;;;;20.10;56.50;;;;;;5033425;28;19917;-58
2021/05/25 02:44:06;;;;;;;;;;;20.10;56.50;;;;;;5028359;28;19962;-56
2021/05/25 02:46:32;;;;;;;;;;;20.10;56.50;;;;;;5031727;28;19924;-59
2021/05/25 02:48:57;;;;;;;;;;;20.10;56.50;;;;;;5028021;28;19921;-55
2021/05/25 02:51:23;;;;;;;;;;;20.10;57.10;;;;;;5023349;28;19925;-59
2021/05/25 02:53:48;;;;;;;;;;;20.10;56.50;;;;;;5030722;28;19917;-59
2021/05/25 02:56:14;;;;;;;;;;;20.10;56.50;;;;;;5037996;28;19925;-59
2021/05/25 02:58:39;;;;;;;;;;;20.10;56.50;;;;;;5033033;28;20386;-59
2021/05/25 03:01:05;;;;;;;;;;;20.10;56.50;;;;;;5018166;28;19955;-59
2021/05/25 03:03:30;;;;;;;;;;;20.10;56.50;;;;;;5028099;28;19933;-58
2021/05/25 03:05:55;;;;;;;;;;;20.10;56.50;;;;;;5036311;28;20572;-57
2021/05/25 03:08:21;;;;;;;;;;;20.10;56.40;;;;;;5031406;28;19932;-59
2021/05/25 03:10:47;;;;;;;;;;;20.10;56.50;;;;;;5031886;28;19916;-58
2021/05/25 03:13:13;;;;;;;;;;;20.10;56.40;;;;;;5029993;28;19921;-58
2021/05/25 03:15:39;;;;;;;;;;;20.00;56.40;;;;;;5013847;28;19947;-57
2021/05/25 03:18:04;;;;;;;;;;;20.10;56.40;;;;;;5034258;28;19972;-57
2021/05/25 03:20:30;;;;;;;;;;;20.10;56.40;;;;;;5030145;28;19928;-59
2021/05/25 03:22:55;;;;;;;;;;;20.00;56.30;;;;;;5031795;28;19971;-58
2021/05/25 03:25:21;;;;;;;;;;;20.10;56.40;;;;;;5010356;28;19928;-58
2021/05/25 03:27:46;;;;;;;;;;;20.10;56.40;;;;;;5017124;28;19931;-58
2021/05/25 03:30:13;;;;;;;;;;;20.10;56.40;;;;;;5034118;28;19924;-56
2021/05/25 03:32:39;;;;;;;;;;;20.10;56.40;;;;;;5031829;28;19921;-59
2021/05/25 03:35:06;;;;;;;;;;;20.10;56.40;;;;;;5028940;28;20340;-57
2021/05/25 03:37:31;;;;;;;;;;;20.10;56.30;;;;;;5026434;28;20004;-58
2021/05/25 03:39:56;;;;;;;;;;;20.10;56.30;;;;;;5035889;28;20015;-58
2021/05/25 03:42:22;;;;;;;;;;;20.10;56.30;;;;;;5038672;28;19960;-57
2021/05/25 03:44:48;;;;;;;;;;;20.00;56.20;;;;;;5028024;28;19923;-58
2021/05/25 03:47:13;;;;;;;;;;;20.10;56.30;;;;;;5029975;28;19943;-57
2021/05/25 03:49:39;;;;;;;;;;;20.10;56.30;;;;;;5044253;22;19960;-58
2021/05/25 03:52:04;;;;;;;;;;;20.00;56.20;;;;;;5022628;28;19921;-59
2021/05/25 03:54:37;;;;;;;;;;;20.00;56.20;;;;;;5025632;28;19916;-61
2021/05/25 03:59:49;;;;;;;;;;;20.00;56.20;;;;;;4999716;28;19926;-61
2021/05/25 04:02:14;;;;;;;;;;;20.10;56.20;;;;;;5022609;28;19917;-58
2021/05/25 04:04:39;;;;;;;;;;;20.10;56.20;;;;;;5004524;28;19924;-61
2021/05/25 04:07:05;;;;;;;;;;;20.00;56.20;;;;;;5022957;28;20027;-62
2021/05/25 04:09:30;;;;;;;;;;;20.00;56.10;;;;;;5024656;28;19917;-61
2021/05/25 04:11:56;;;;;;;;;;;20.00;56.20;;;;;;5032224;28;20285;-62
2021/05/25 04:14:21;;;;;;;;;;;20.10;56.20;;;;;;5020940;28;19925;-61
2021/05/25 04:16:47;;;;;;;;;;;20.00;56.10;;;;;;5021440;28;19925;-60
2021/05/25 04:19:12;;;;;;;;;;;20.00;56.10;;;;;;5021682;28;19924;-61
2021/05/25 04:21:38;;;;;;;;;;;20.00;56.70;;;;;;5030400;28;19921;-59
2021/05/25 04:24:03;;;;;;;;;;;20.00;56.10;;;;;;5024991;28;20389;-59
2021/05/25 04:26:29;;;;;;;;;;;20.00;56.10;;;;;;5021823;28;20063;-60
2021/05/25 04:28:54;;;;;;;;;;;20.00;56.20;;;;;;5035110;28;19925;-61
2021/05/25 04:31:20;;;;;;;;;;;20.00;56.20;;;;;;5022196;28;20306;-61
2021/05/25 04:33:46;;;;;;;;;;;20.00;56.20;;;;;;5029704;28;19971;-61
2021/05/25 04:36:11;;;;;;;;;;;20.00;56.20;;;;;;5020879;28;19929;-61
2021/05/25 04:38:36;;;;;;;;;;;20.00;56.20;;;;;;5029259;28;19922;-61
2021/05/25 04:41:02;;;;;;;;;;;20.00;56.30;;;;;;5021251;28;20722;-61
2021/05/25 04:43:27;;;;;;;;;;;20.00;56.30;;;;;;5021592;28;19917;-61
2021/05/25 04:45:53;;;;;;;;;;;20.00;56.40;;;;;;5023152;28;19917;-61
2021/05/25 04:48:18;;;;;;;;;;;20.00;56.40;;;;;;5022921;28;19918;-62
2021/05/25 04:50:44;;;;;;;;;;;20.00;56.60;;;;;;5019166;28;20723;-60
2021/05/25 04:53:09;;;;;;;;;;;20.00;56.70;;;;;;5026883;28;20340;-60
2021/05/25 04:55:35;;;;;;;;;;;20.00;56.90;;;;;;5007840;28;19928;-60
2021/05/25 04:58:00;;;;;;;;;;;20.00;57.10;;;;;;5021565;28;19925;-59
2021/05/25 05:00:26;;;;;;;;;;;20.00;57.20;;;;;;5019210;28;19936;-60
2021/05/25 05:02:52;;;;;;;;;;;20.00;57.40;;;;;;5011953;28;19952;-60
2021/05/25 05:05:18;;;;;;;;;;;20.00;57.50;;;;;;5004589;28;20398;-60
2021/05/25 05:07:44;;;;;;;;;;;20.00;57.50;;;;;;5032755;28;20003;-59
2021/05/25 05:10:09;;;;;;;;;;;20.00;57.60;;;;;;5026279;28;19971;-60
2021/05/25 05:12:35;;;;;;;;;;;20.00;57.60;;;;;;5024423;28;19943;-61
2021/05/25 05:15:00;;;;;;;;;;;20.00;57.60;;;;;;5030473;28;19918;-59
2021/05/25 05:17:27;;;;;;;;;;;20.00;58.20;;;;;;5013045;28;20184;-60
2021/05/25 05:19:53;;;;;;;;;;;20.00;57.50;;;;;;5029952;28;19960;-60
2021/05/25 05:22:19;;;;;;;;;;;20.00;57.50;;;;;;5034369;28;19967;-61
2021/05/25 05:24:44;;;;;;;;;;;20.00;57.50;;;;;;5029593;28;20024;-60
2021/05/25 05:27:09;;;;;;;;;;;20.00;57.40;;;;;;5025716;28;19973;-59
2021/05/25 05:29:35;;;;;;;;;;;20.00;57.30;;;;;;5026918;28;19921;-61
2021/05/25 05:32:00;;;;;;;;;;;20.00;57.30;;;;;;5024276;28;20677;-60
2021/05/25 05:34:26;;;;;;;;;;;20.00;57.30;;;;;;5024261;28;19924;-59
2021/05/25 05:36:51;;;;;;;;;;;20.00;57.40;;;;;;5023989;28;20425;-59
2021/05/25 05:39:17;;;;;;;;;;;20.00;58.10;;;;;;5022992;28;19921;-61
2021/05/25 05:41:42;;;;;;;;;;;20.00;57.60;;;;;;5021980;28;19952;-61
2021/05/25 05:44:07;;;;;;;;;;;20.00;57.70;;;;;;5021725;28;19967;-60
2021/05/25 05:46:33;;;;;;;;;;;20.00;57.80;;;;;;5022428;28;20485;-66
2021/05/25 05:48:58;;;;;;;;;;;20.00;57.80;;;;;;5023308;28;19913;-60
2021/05/25 05:51:24;;;;;;;;;;;20.00;57.70;;;;;;5021856;28;19925;-59
2021/05/25 05:53:49;;;;;;;;;;;20.00;57.60;;;;;;5023831;28;19917;-60
2021/05/25 05:56:18;;;;;;;;;;;20.00;57.50;;;;;;5024303;28;19917;-61
2021/05/25 05:58:44;;;;;;;;;;;20.00;57.30;;;;;;5024377;28;19924;-58
2021/05/25 06:01:10;;;;;;;;;;;20.00;57.20;;;;;;5024135;28;20287;-60
2021/05/25 06:03:35;;;;;;;;;;;20.00;57.10;;;;;;5024538;28;19928;-61
2021/05/25 06:06:01;;;;;;;;;;;20.00;57.70;;;;;;5025530;28;19921;-60
2021/05/25 06:08:26;;;;;;;;;;;20.00;57.00;;;;;;5024284;28;19939;-60
2021/05/25 06:10:52;;;;;;;;;;;20.00;56.90;;;;;;5024306;28;19959;-61
2021/05/25 06:13:20;;;;;;;;;;;20.00;56.80;;;;;;5024441;28;19913;-61
2021/05/25 06:15:46;;;;;;;;;;;20.00;56.70;;;;;;5024768;28;20311;-61
2021/05/25 06:18:11;;;;;;;;;;;20.00;56.70;;;;;;5006958;28;19943;-59
2021/05/25 06:20:37;;;;;;;;;;;20.00;56.60;;;;;;5023113;28;20008;-59
2021/05/25 06:23:02;;;;;;;;;;;20.00;56.50;;;;;;5025204;28;19917;-59
2021/05/25 06:25:28;;;;;;;;;;;20.00;56.40;;;;;;5023653;28;19964;-60
2021/05/25 06:27:54;;;;;;;;;;;20.00;56.40;;;;;;5024280;28;20378;-60
2021/05/25 06:30:19;;;;;;;;;;;20.00;56.20;;;;;;5022038;28;20610;-60
2021/05/25 06:32:45;;;;;;;;;;;20.00;56.10;;;;;;5023903;28;19913;-60
2021/05/25 06:35:10;;;;;;;;;;;20.00;56.20;;;;;;5024852;28;19913;-60
2021/05/25 06:37:36;;;;;;;;;;;20.00;56.10;;;;;;5006963;28;19971;-59
2021/05/25 06:40:01;;;;;;;;;;;20.00;56.10;;;;;;5023565;28;19971;-61
2021/05/25 06:42:27;;;;;;;;;;;19.90;56.00;;;;;;5024135;28;20366;-60
2021/05/25 06:44:52;;;;;;;;;;;20.00;56.00;;;;;;5023381;28;20375;-59
2021/05/25 06:47:18;;;;;;;;;;;20.00;55.80;;;;;;5023631;28;19913;-57
2021/05/25 06:49:43;;;;;;;;;;;20.00;55.80;;;;;;5023222;28;19917;-59
2021/05/25 06:52:10;;;;;;;;;;;20.00;55.70;;;;;;5023130;28;19917;-57
2021/05/25 06:54:35;;;;;;;;;;;20.00;55.70;;;;;;5005320;28;20298;-58
2021/05/25 06:57:01;;;;;;;;;;;20.00;55.60;;;;;;5022905;28;19924;-58
2021/05/25 06:59:26;;;;;;;;;;;20.00;55.60;;;;;;5004961;28;19936;-58
2021/05/25 07:01:53;;;;;;;;;;;20.00;55.60;;;;;;5023228;28;19921;-56
2021/05/25 07:04:19;;;;;;;;;;;20.00;55.40;;;;;;5023091;28;20385;-59
2021/05/25 07:06:45;;;;;;;;;;;20.00;55.50;;;;;;5024307;28;19917;-59
2021/05/25 07:09:10;;;;;;;;;;;20.00;55.50;;;;;;5022074;28;20284;-57
2021/05/25 07:11:36;;;;;;;;;;;20.00;55.40;;;;;;5020031;28;19921;-58
2021/05/25 07:14:02;;;;;;;;;;;20.00;55.40;;;;;;5021603;28;19921;-57
2021/05/25 07:16:27;;;;;;;;;;;20.00;55.50;;;;;;5022501;28;19917;-57
2021/05/25 07:18:53;;;;;;;;;;;20.00;55.40;;;;;;5022767;28;19920;-59
2021/05/25 07:21:18;;;;;;;;;;;20.00;55.30;;;;;;5022304;28;19913;-58
2021/05/25 07:23:44;;;;;;;;;;;20.00;55.30;;;;;;5022349;28;19917;-58
2021/05/25 07:26:09;;;;;;;;;;;20.00;55.30;;;;;;5022883;28;20386;-58
2021/05/25 07:28:35;;;;;;;;;;;20.00;55.30;;;;;;5022923;28;19966;-59
2021/05/25 07:31:00;;;;;;;;;;;20.00;55.30;;;;;;5022403;28;19913;-59
2021/05/25 07:33:26;;;;;;;;;;;20.00;55.30;;;;;;5021653;28;19917;-59
2021/05/25 07:35:52;;;;;;;;;;;20.00;55.40;;;;;;5022529;28;19931;-59
2021/05/25 07:38:17;;;;;;;;;;;20.00;55.30;;;;;;5021992;28;19913;-60
2021/05/25 07:40:43;;;;;;;;;;;20.00;55.30;;;;;;5003951;28;19925;-59
2021/05/25 07:43:08;;;;;;;;;;;20.00;55.40;;;;;;5022794;28;19964;-61
2021/05/25 07:45:34;;;;;;;;;;;20.00;55.30;;;;;;5022064;28;20294;-62
2021/05/25 07:47:59;;;;;;;;;;;20.00;55.40;;;;;;5022304;28;19913;-62
2021/05/25 07:50:25;;;;;;;;;;;20.00;55.40;;;;;;5021604;28;20326;-59
2021/05/25 07:52:51;;;;;;;;;;;20.00;55.40;;;;;;5022925;28;19913;-59
2021/05/25 07:55:18;;;;;;;;;;;20.00;55.40;;;;;;5022022;28;20020;-59
2021/05/25 07:57:43;;;;;;;;;;;19.90;55.40;;;;;;5022117;28;19991;-59
2021/05/25 08:00:10;;;;;;;;;;;19.90;55.40;;;;;;5021649;28;19913;-61
2021/05/25 08:02:36;;;;;;;;;;;20.00;55.40;;;;;;5022921;28;20338;-58
2021/05/25 08:05:01;;;;;;;;;;;20.00;55.40;;;;;;5021896;28;19963;-59
2021/05/25 08:07:27;;;;;;;;;;;20.00;55.40;;;;;;5022094;28;20201;-59
2021/05/25 08:09:52;;;;;;;;;;;20.00;55.40;;;;;;5020929;28;20019;-59
2021/05/25 08:12:18;;;;;;;;;;;20.00;55.40;;;;;;5021366;28;19913;-59
2021/05/25 08:14:43;;;;;;;;;;;20.00;55.40;;;;;;5021932;28;20664;-58
2021/05/25 08:17:21;;;;;;;;;;;20.00;55.40;;;;;;5021920;28;19971;-59
2021/05/25 08:19:49;;;;;;;;;;;20.00;55.40;;;;;;5021420;28;20429;-57
2021/05/25 08:22:14;;;;;;;;;;;20.00;55.40;;;;;;5021598;28;19919;-58
2021/05/25 08:24:40;;;;;;;;;;;20.00;55.40;;;;;;5021724;28;19913;-59
2021/05/25 08:27:05;;;;;;;;;;;20.00;55.50;;;;;;5022786;28;19917;-58
2021/05/25 08:29:31;;;;;;;;;;;20.00;55.40;;;;;;5022262;28;19967;-59
2021/05/25 08:31:56;;;;;;;;;;;20.00;55.40;;;;;;5021664;28;19921;-59
2021/05/25 08:34:23;;;;;;;;;;;20.00;55.40;;;;;;5021888;28;19913;-59
2021/05/25 08:36:49;;;;;;;;;;;20.00;55.50;;;;;;5021698;28;19952;-59
2021/05/25 08:39:14;;;;;;;;;;;20.00;55.40;;;;;;5022427;28;19971;-58
2021/05/25 08:41:39;;;;;;;;;;;20.00;55.50;;;;;;5017378;28;19913;-59
2021/05/25 08:44:05;;;;;;;;;;;19.90;55.40;;;;;;5022274;28;20390;-59
2021/05/25 08:46:32;;;;;;;;;;;19.90;55.40;;;;;;5022716;28;20066;-58
2021/05/25 08:48:57;;;;;;;;;;;19.90;55.40;;;;;;5017732;28;20345;-59
2021/05/25 08:51:23;;;;;;;;;;;19.90;55.40;;;;;;5024578;28;19933;-58
2021/05/25 08:53:48;;;;;;;;;;;19.90;55.40;;;;;;5021531;28;20819;-59
2021/05/25 08:56:14;;;;;;;;;;;19.90;55.40;;;;;;5025475;28;19921;-59
2021/05/25 08:58:39;;;;;;;;;;;19.90;55.50;;;;;;5025488;28;19913;-61
2021/05/25 09:01:05;;;;;;;;;;;19.90;55.50;;;;;;5023105;28;19928;-58
2021/05/25 09:03:31;;;;;;;;;;;19.90;55.50;;;;;;5025325;28;19990;-62
2021/05/25 09:06:06;;;;;;;;;;;19.90;55.50;;;;;;5023959;28;20424;-58
2021/05/25 09:08:31;;;;;;;;;;;19.90;55.50;;;;;;5025168;28;20389;-57
2021/05/25 09:10:59;;;;;;;;;;;19.90;55.50;;;;;;5024086;28;19913;-58
2021/05/25 09:13:25;;;;;;;;;;;19.90;55.50;;;;;;5008240;28;20411;-59
2021/05/25 09:15:54;;;;;;;;;;;19.90;55.50;;;;;;5024801;28;19917;-59
2021/05/25 09:18:20;;;;;;;;;;;19.90;55.50;;;;;;5007750;28;19988;-59
2021/05/25 09:20:47;;;;;;;;;;;19.90;55.40;;;;;;5024475;28;19917;-60
2021/05/25 09:23:14;;;;;;;;;;;19.90;55.50;;;;;;5007409;28;19913;-59
2021/05/25 09:25:52;;;;;;;;;;;19.90;55.50;;;;;;5025178;28;19962;-59
2021/05/25 09:28:18;;;;;;;;;;;20.00;55.50;;;;;;5007783;28;19917;-60
2021/05/25 09:30:46;;;;;;;;;;;19.90;55.50;;;;;;5024099;28;19947;-60
2021/05/25 09:33:12;;;;;;;;;;;19.90;55.50;;;;;;5008042;28;19921;-60
2021/05/25 09:35:39;;;;;;;;;;;19.90;55.60;;;;;;5024216;28;19962;-59
2021/05/25 09:38:09;;;;;;;;;;;19.90;55.60;;;;;;5024891;28;19924;-60
2021/05/25 09:40:34;;;;;;;;;;;19.90;55.60;;;;;;5023991;28;20440;-60
2021/05/25 09:43:08;;;;;;;;;;;19.90;55.50;;;;;;5024808;28;19996;-60
2021/05/25 09:45:34;;;;;;;;;;;19.90;55.50;;;;;;5024682;28;19921;-58
2021/05/25 09:47:59;;;;;;;;;;;19.90;55.60;;;;;;5023693;28;19913;-59
2021/05/25 09:50:25;;;;;;;;;;;19.90;55.60;;;;;;5022814;23;19905;-63
2021/05/25 09:53:00;;;;;;;;;;;19.90;55.60;;;;;;5039538;28;19936;-68
2021/05/25 09:55:26;;;;;;;;;;;19.90;55.60;;;;;;5020936;28;19909;-67
2021/05/25 09:57:53;;;;;;;;;;;19.90;55.60;;;;;;5020750;28;19970;-67
2021/05/25 10:00:25;;;;;;;;;;;19.90;55.50;;;;;;5028083;28;19936;-67
2021/05/25 10:03:25;;;;;;;;;;;19.90;55.50;;;;;;5032710;28;19944;-66
2021/05/25 10:05:51;;;;;;;;;;;19.90;55.50;;;;;;4999000;28;19909;-67
2021/05/25 10:08:18;;;;;;;;;;;19.90;55.60;;;;;;5033363;28;20421;-68
2021/05/25 10:10:43;;;;;;;;;;;19.90;55.60;;;;;;5035471;28;19962;-67
2021/05/25 10:13:09;;;;;;;;;;;19.90;55.60;;;;;;5037261;28;19913;-67
2021/05/25 10:15:34;;;;;;;;;;;19.90;55.50;;;;;;5035986;28;20019;-67
2021/05/25 10:20:28;;;;;;;;;;;19.90;55.40;;;;;;5039031;28;19909;-67
2021/05/25 10:22:53;;;;;;;;;;;19.90;55.50;;;;;;5038293;28;19909;-67
2021/05/25 10:25:19;;;;;;;;;;;19.90;55.50;;;;;;5037324;28;20046;-67
2021/05/25 10:27:45;;;;;;;;;;;19.90;55.50;;;;;;5009635;28;19916;-66
2021/05/25 10:30:26;;;;;;;;;;;19.90;55.50;;;;;;5036173;28;19918;-68
2021/05/25 10:33:21;;;;;;;;;;;19.90;55.50;;;;;;5036142;28;20552;-66
2021/05/25 10:35:50;;;;;;;;;;;19.80;55.40;;;;;;5034622;28;19909;-66
2021/05/25 10:38:16;;;;;;;;;;;19.90;55.50;;;;;;5032866;28;19908;-67
2021/05/25 10:40:45;;;;;;;;;;;19.90;55.50;;;;;;5037476;28;19923;-68
2021/05/25 10:43:29;;;;;;;;;;;19.90;55.60;;;;;;5035993;28;19910;-67
2021/05/25 10:46:12;;;;;;;;;;;19.90;55.50;;;;;;5029818;28;20011;-68
2021/05/25 10:51:46;;;;;;;;;;;19.80;55.50;;;;;;5045742;28;19947;-69
2021/05/25 10:54:38;;;;;;;;;;;19.80;55.50;;;;;;5028704;28;20135;-68
2021/05/25 10:57:23;;;;;;;;;;;19.80;55.50;;;;;;5031384;28;20484;-67
2021/05/25 10:59:58;;;;;;;;;;;19.90;55.50;;;;;;5033288;28;20002;-67
2021/05/25 11:02:42;;;;;;;;;;;19.80;55.50;;;;;;5042986;28;19913;-66
2021/05/25 11:05:26;;;;;;;;;;;19.80;55.40;;;;;;5036218;28;19913;-67
2021/05/25 11:07:51;;;;;;;;;;;19.80;55.50;;;;;;5038300;28;19962;-66
2021/05/25 11:10:26;;;;;;;;;;;19.80;55.40;;;;;;5033867;28;19917;-68
2021/05/25 11:13:10;;;;;;;;;;;19.80;55.40;;;;;;5029852;28;20268;-67
2021/05/25 11:15:42;;;;;;;;;;;19.80;55.40;;;;;;5041820;28;20325;-67
2021/05/25 11:18:30;;;;;;;;;;;19.80;55.40;;;;;;5017359;28;19971;-67
2021/05/25 11:21:19;;;;;;;;;;;19.80;55.50;;;;;;5035749;28;20291;-67
2021/05/25 11:23:50;;;;;;;;;;;19.80;55.40;;;;;;5046482;28;20369;-67
2021/05/25 11:26:34;;;;;;;;;;;19.80;55.40;;;;;;5037087;28;19913;-67
2021/05/25 11:29:16;;;;;;;;;;;19.80;55.40;;;;;;5031223;28;19916;-66
2021/05/25 11:31:41;;;;;;;;;;;19.80;55.40;;;;;;5030913;28;19909;-68
2021/05/25 11:34:07;;;;;;;;;;;19.80;55.40;;;;;;5030534;28;19916;-68
2021/05/25 11:36:32;;;;;;;;;;;19.80;55.40;;;;;;5034451;28;19920;-68
2021/05/25 11:38:58;;;;;;;;;;;19.80;55.40;;;;;;5041023;28;20383;-68
2021/05/25 11:41:23;;;;;;;;;;;19.80;55.40;;;;;;5037061;28;19909;-69
2021/05/25 11:44:00;;;;;;;;;;;19.80;55.40;;;;;;5043358;28;19913;-65
2021/05/25 11:46:36;;;;;;;;;;;19.80;55.30;;;;;;5019006;28;19962;-66
2021/05/25 11:49:03;;;;;;;;;;;19.80;55.30;;;;;;5026168;28;19955;-65
2021/05/25 11:51:28;;;;;;;;;;;19.80;55.30;;;;;;5008099;28;19917;-68
2021/05/25 11:53:54;;;;;;;;;;;19.80;55.30;;;;;;5030961;28;19940;-66
2021/05/25 11:56:19;;;;;;;;;;;19.80;55.30;;;;;;5008958;28;19933;-65
2021/05/25 11:58:54;;;;;;;;;;;19.80;55.30;;;;;;5010006;28;19909;-66
2021/05/25 12:01:20;;;;;;;;;;;19.80;55.30;;;;;;5034717;28;19913;-68
2021/05/25 12:03:46;;;;;;;;;;;19.80;55.30;;;;;;5036222;28;20521;-68
2021/05/25 12:06:14;;;;;;;;;;;19.80;55.40;;;;;;5028789;28;19913;-69
2021/05/25 12:08:40;;;;;;;;;;;19.80;55.40;;;;;;5039340;28;19917;-67
2021/05/25 12:11:05;;;;;;;;;;;19.80;55.40;;;;;;5038430;28;20002;-67
2021/05/25 12:13:32;;;;;;;;;;;19.80;55.40;;;;;;5043588;28;20271;-67
2021/05/25 12:15:57;;;;;;;;;;;19.80;55.40;;;;;;5017732;28;19924;-67
2021/05/25 12:18:24;;;;;;;;;;;19.80;55.50;;;;;;5033546;28;20000;-68
2021/05/25 12:20:51;;;;;;;;;;;19.80;55.40;;;;;;5019864;28;19917;-68
2021/05/25 12:23:18;;;;;;;;;;;19.80;55.40;;;;;;5044019;28;19920;-70
2021/05/25 12:25:49;;;;;;;;;;;19.80;55.40;;;;;;5040260;28;19909;-67
2021/05/25 12:28:15;;;;;;;;;;;19.80;55.40;;;;;;5043788;28;19917;-68
2021/05/25 12:30:44;;;;;;;;;;;19.80;55.50;;;;;;5037010;28;20302;-68
2021/05/25 12:33:19;;;;;;;;;;;19.80;55.50;;;;;;5046977;28;19908;-68
2021/05/25 12:35:44;;;;;;;;;;;19.70;55.40;;;;;;5043652;28;19908;-67
2021/05/25 12:38:15;;;;;;;;;;;19.70;55.50;;;;;;5046761;28;20294;-68
2021/05/25 12:40:40;;;;;;;;;;;19.80;55.50;;;;;;5038877;28;19908;-68
2021/05/25 12:43:15;;;;;;;;;;;19.70;55.40;;;;;;5041670;28;19955;-68
2021/05/25 12:45:43;;;;;;;;;;;19.80;55.50;;;;;;5045346;28;19909;-68
2021/05/25 12:48:08;;;;;;;;;;;19.70;55.50;;;;;;5038809;28;19916;-67
2021/05/25 12:50:37;;;;;;;;;;;19.80;55.50;;;;;;5020616;28;19928;-68
2021/05/25 12:53:03;;;;;;;;;;;19.80;55.50;;;;;;5043496;28;19999;-67
2021/05/25 12:55:28;;;;;;;;;;;19.80;55.60;;;;;;5036283;28;19913;-68
2021/05/25 12:57:54;;;;;;;;;;;19.80;55.50;;;;;;5022254;28;19917;-69
2021/05/25 13:00:29;;;;;;;;;;;19.80;55.50;;;;;;5031765;28;19948;-68
2021/05/25 13:02:55;;;;;;;;;;;19.80;55.50;;;;;;5047523;28;20299;-68
2021/05/25 13:05:27;;;;;;;;;;;19.70;55.50;;;;;;5051712;28;19913;-67
2021/05/25 13:08:09;;;;;;;;;;;19.80;55.60;;;;;;5043086;28;19913;-68
2021/05/25 13:10:47;;;;;;;;;;;19.80;55.60;;;;;;5036071;28;19944;-68
2021/05/25 13:13:16;;;;;;;;;;;19.80;55.60;;;;;;5031924;28;19909;-67
2021/05/25 13:15:42;;;;;;;;;;;19.80;55.60;;;;;;5040696;28;20015;-68
2021/05/25 13:18:10;;;;;;;;;;;19.80;55.60;;;;;;5031611;28;19944;-68
2021/05/25 13:20:36;;;;;;;;;;;19.80;55.60;;;;;;5035676;28;19936;-68
2021/05/25 13:23:01;;;;;;;;;;;19.80;55.60;;;;;;5042293;28;20614;-67
2021/05/25 13:25:30;;;;;;;;;;;19.80;55.60;;;;;;5041817;28;19943;-69
2021/05/25 13:27:56;;;;;;;;;;;19.80;55.60;;;;;;5044000;28;20381;-68
2021/05/25 13:30:31;;;;;;;;;;;19.80;55.60;;;;;;5040122;28;20106;-67
2021/05/25 13:32:56;;;;;;;;;;;19.80;55.50;;;;;;5041059;28;19931;-68
2021/05/25 13:35:22;;;;;;;;;;;19.80;55.40;;;;;;5037049;28;20537;-67
2021/05/25 13:37:47;;;;;;;;;;;19.80;55.50;;;;;;5034066;28;19917;-68
2021/05/25 13:40:13;;;;;;;;;;;19.80;55.50;;;;;;5034793;28;19951;-66
2021/05/25 13:42:39;;;;;;;;;;;19.80;55.50;;;;;;5039165;28;20437;-67
2021/05/25 13:45:04;;;;;;;;;;;19.80;55.50;;;;;;5043593;28;19917;-68
2021/05/25 13:47:30;;;;;;;;;;;19.80;55.50;;;;;;5035791;28;19955;-69
2021/05/25 13:49:56;;;;;;;;;;;19.80;55.50;;;;;;5034109;28;19939;-67
2021/05/25 13:52:21;;;;;;;;;;;19.70;55.50;;;;;;5031633;28;19918;-68
2021/05/25 13:54:47;;;;;;;;;;;19.80;55.50;;;;;;5042905;28;19913;-67
2021/05/25 13:57:20;;;;;;;;;;;19.80;55.50;;;;;;5043257;28;19913;-67
2021/05/25 14:02:12;;;;;;;;;;;19.80;55.50;;;;;;5031846;28;20359;-68
2021/05/25 14:04:38;;;;;;;;;;;19.80;55.50;;;;;;5041396;28;19909;-67
2021/05/25 14:07:17;;;;;;;;;;;19.80;55.60;;;;;;5034556;28;20404;-68
2021/05/25 14:09:42;;;;;;;;;;;19.80;55.50;;;;;;5043157;28;19909;-66
2021/05/25 14:12:08;;;;;;;;;;;19.80;55.40;;;;;;5037217;28;19909;-66
2021/05/25 14:14:33;;;;;;;;;;;19.80;55.40;;;;;;5044726;28;19913;-65
2021/05/25 14:16:59;;;;;;;;;;;19.80;55.40;;;;;;5034261;28;20504;-68
2021/05/25 14:19:24;;;;;;;;;;;19.80;55.40;;;;;;5033532;28;19913;-66
2021/05/25 14:21:49;;;;;;;;;;;19.80;55.40;;;;;;5037319;28;19917;-68
2021/05/25 14:24:15;;;;;;;;;;;19.80;55.40;;;;;;5041058;28;19915;-68
2021/05/25 14:26:41;;;;;;;;;;;19.80;55.40;;;;;;5036718;28;19909;-66